Time;durP1;ratioP1;P1;durP2;ratioP2;P2;SDS_P1;SDS_P2;PMS_P1;PMS_P2;Temp;Humidity;BMP_temperature;BMP_pressure;BME280_temperature;BME280_humidity;BME280_pressure;Samples;Min_cycle;Max_cycle;Signal;HPM_P1;HPM_P2
2022/11/30 10:38:53;;;;;;;56.65;25.30;;;5.80;99.90;;;;;;5170761;27;20106;-75
2022/11/30 10:41:33;;;;;;;48.90;20.50;;;6.40;99.90;;;;;;5123366;27;20451;-76
2022/11/30 10:44:09;;;;;;;59.28;24.02;;;7.10;99.90;;;;;;5140265;27;20125;-74
2022/11/30 10:46:42;;;;;;;51.65;23.77;;;6.10;99.90;;;;;;5157773;27;20479;-76
2022/11/30 10:49:17;;;;;;;56.05;23.35;;;6.20;99.90;;;;;;5138382;27;20047;-75
2022/11/30 10:51:48;;;;;;;49.90;23.45;;;6.40;99.90;;;;;;5159635;27;20043;-75
2022/11/30 10:54:17;;;;;;;52.22;23.30;;;6.40;99.90;;;;;;5161088;27;20050;-75
2022/11/30 10:56:43;;;;;;;48.80;23.00;;;6.70;99.90;;;;;;5158894;27;20046;-75
2022/11/30 10:59:18;;;;;;;41.88;19.98;;;6.50;99.90;;;;;;5141578;27;20053;-75
2022/11/30 11:01:44;;;;;;;45.80;22.13;;;6.60;99.90;;;;;;5140519;27;20042;-74
2022/11/30 11:04:19;;;;;;;46.47;21.63;;;6.80;99.90;;;;;;5139013;27;20103;-74
2022/11/30 11:06:51;;;;;;;44.80;21.42;;;6.50;99.90;;;;;;5159178;27;20031;-75
2022/11/30 11:09:28;;;;;;;44.10;20.10;;;6.30;99.90;;;;;;5160493;27;20133;-74
2022/11/30 11:11:57;;;;;;;39.25;21.17;;;6.80;99.90;;;;;;5155879;27;20072;-74
2022/11/30 11:14:25;;;;;;;40.58;20.50;;;6.70;99.90;;;;;;5159339;27;20043;-74
2022/11/30 11:17:02;;;;;;;38.92;19.77;;;6.70;99.90;;;;;;5159522;27;20394;-75
2022/11/30 11:19:35;;;;;;;47.70;21.77;;;6.70;99.90;;;;;;5156384;27;20061;-74
2022/11/30 11:22:05;;;;;;;;;;;6.30;99.90;;;;;;5140769;27;20046;-75
2022/11/30 11:24:32;;;;;;;49.20;22.60;;;6.60;99.90;;;;;;5157489;27;20005;-73
2022/11/30 11:26:58;;;;;;;49.53;23.63;;;6.60;99.90;;;;;;5158560;27;20118;-74
2022/11/30 11:29:33;;;;;;;51.30;24.08;;;6.30;99.90;;;;;;5141694;27;20042;-75
2022/11/30 11:32:29;;;;;;;51.42;23.15;;;6.30;99.90;;;;;;5142954;27;20087;-74
2022/11/30 11:34:55;;;;;;;49.60;21.85;;;6.60;99.90;;;;;;5120170;27;20427;-75
2022/11/30 11:37:28;;;;;;;49.95;23.67;;;6.40;99.90;;;;;;5136941;27;20051;-75
2022/11/30 11:40:16;;;;;;;55.85;25.30;;;6.60;99.90;;;;;;5108319;28;20057;-75
2022/11/30 11:42:50;;;;;;;52.42;24.77;;;6.30;99.90;;;;;;5128358;27;20487;-76
2022/11/30 11:45:27;;;;;;;56.60;24.42;;;6.30;99.90;;;;;;5126553;28;20518;-75
2022/11/30 11:47:59;;;;;;;49.78;22.95;;;6.30;99.90;;;;;;5124467;28;20444;-75
2022/11/30 11:50:31;;;;;;;53.33;24.05;;;6.50;99.90;;;;;;5096793;28;20044;-75
2022/11/30 11:53:13;;;;;;;58.05;24.05;;;6.40;99.90;;;;;;5113442;28;20048;-75
2022/11/30 11:55:42;;;;;;;56.15;26.10;;;6.60;99.90;;;;;;5103403;28;20479;-74
2022/11/30 11:58:18;;;;;;;61.30;28.40;;;6.20;99.90;;;;;;5112087;28;20392;-75
2022/11/30 12:00:47;;;;;;;61.58;26.50;;;6.60;99.90;;;;;;5109850;28;20098;-76
2022/11/30 12:03:33;;;;;;;64.90;26.75;;;6.60;99.90;;;;;;5113199;28;20036;-74
2022/11/30 12:06:12;;;;;;;62.92;26.13;;;6.50;99.90;;;;;;5109286;28;20496;-74
2022/11/30 12:08:46;;;;;;;68.10;27.75;;;6.40;99.90;;;;;;5110942;28;20141;-75
2022/11/30 12:11:44;;;;;;;68.45;28.20;;;6.80;99.90;;;;;;5111716;28;20049;-75
2022/11/30 12:14:17;;;;;;;69.30;30.15;;;6.40;99.90;;;;;;5111527;27;20769;-76
2022/11/30 12:17:04;;;;;;;66.95;28.27;;;6.60;99.90;;;;;;5108602;28;20051;-75
2022/11/30 12:19:41;;;;;;;71.53;29.67;;;6.40;99.90;;;;;;5113115;28;20411;-75
2022/11/30 12:22:49;;;;;;;68.05;28.25;;;6.20;99.90;;;;;;5113851;28;20031;-75
2022/11/30 12:25:26;;;;;;;59.58;26.05;;;6.40;99.90;;;;;;5107546;28;20047;-75
2022/11/30 12:28:16;;;;;;;62.55;27.35;;;6.20;99.90;;;;;;5115505;28;20039;-75
2022/11/30 12:30:55;;;;;;;57.88;27.55;;;6.90;99.90;;;;;;5109114;28;20044;-73
2022/11/30 12:33:43;;;;;;;60.03;26.58;;;6.20;99.90;;;;;;5109945;28;20051;-75
2022/11/30 12:36:17;;;;;;;54.67;24.77;;;6.20;99.90;;;;;;5112371;28;20043;-76
2022/11/30 12:38:46;;;;;;;54.85;26.50;;;6.30;99.90;;;;;;5109830;28;20138;-76
2022/11/30 12:41:29;;;;;;;56.72;25.35;;;6.20;99.90;;;;;;5112070;28;20047;-76
2022/11/30 12:44:27;;;;;;;59.03;25.90;;;6.20;99.90;;;;;;5111204;28;20058;-76
2022/11/30 12:47:30;;;;;;;63.97;26.60;;;6.10;99.90;;;;;;5113694;28;20055;-75
2022/11/30 12:50:15;;;;;;;60.97;27.67;;;6.30;99.90;;;;;;5091528;28;20047;-76
2022/11/30 12:53:12;;;;;;;62.60;29.10;;;6.70;99.90;;;;;;5110504;28;20051;-76
2022/11/30 12:55:46;;;;;;;63.55;28.60;;;6.30;99.90;;;;;;5108899;28;20169;-76
2022/11/30 12:58:31;;;;;;;55.28;26.23;;;6.40;99.90;;;;;;5114869;28;20035;-75
2022/11/30 13:01:28;;;;;;;58.00;26.58;;;6.40;99.90;;;;;;5108042;28;20364;-75
2022/11/30 13:04:06;;;;;;;56.25;25.65;;;6.40;99.90;;;;;;5113527;28;20086;-75
2022/11/30 13:06:43;;;;;;;58.13;27.48;;;6.50;99.90;;;;;;5114736;28;20093;-76
2022/11/30 13:09:22;;;;;;;55.70;26.17;;;6.40;99.90;;;;;;5113635;28;20394;-76
2022/11/30 13:11:54;;;;;;;52.67;24.83;;;6.40;99.90;;;;;;5094960;28;20048;-76
2022/11/30 13:14:25;;;;;;;60.03;26.70;;;6.40;99.90;;;;;;5110405;28;20050;-76
2022/11/30 13:17:03;;;;;;;55.60;26.33;;;6.50;99.90;;;;;;5114577;28;20066;-76
2022/11/30 13:19:44;;;;;;;52.03;23.92;;;6.30;99.90;;;;;;5112038;28;20046;-76
2022/11/30 13:22:26;;;;;;;52.22;25.70;;;6.20;99.90;;;;;;5113284;28;20047;-76
2022/11/30 13:25:14;;;;;;;57.80;25.38;;;6.00;99.90;;;;;;5112156;28;20047;-76
2022/11/30 13:27:48;;;;;;;53.42;26.27;;;6.30;99.90;;;;;;5091969;28;20039;-76
2022/11/30 13:30:27;;;;;;;55.25;26.83;;;6.50;99.90;;;;;;5096456;28;20043;-75
2022/11/30 13:32:52;;;;;;;57.33;27.02;;;6.30;99.90;;;;;;5112445;28;20437;-75
2022/11/30 13:35:27;;;;;;;57.28;26.75;;;6.50;99.90;;;;;;5113092;28;20045;-75
2022/11/30 13:38:18;;;;;;;55.63;25.20;;;7.20;99.90;;;;;;5101931;27;20047;-76
2022/11/30 13:41:03;;;;;;;52.90;24.65;;;6.30;99.90;;;;;;5125005;27;20100;-75
2022/11/30 13:43:46;;;;;;;58.38;27.33;;;6.40;99.90;;;;;;5144732;27;20391;-76
2022/11/30 13:46:19;;;;;;;49.53;26.38;;;6.40;99.90;;;;;;5144191;27;20043;-75
2022/11/30 13:48:46;;;;;;;57.30;26.05;;;6.30;99.90;;;;;;5144837;27;20073;-76
2022/11/30 13:51:32;;;;;;;54.42;25.27;;;6.20;99.90;;;;;;5125298;27;20047;-75
2022/11/30 13:54:57;;;;;;;52.97;25.35;;;7.20;99.90;;;;;;5141750;27;20054;-74
2022/11/30 13:57:28;;;;;;;55.63;25.63;;;6.50;99.90;;;;;;5077157;28;20045;-75
2022/11/30 13:59:56;;;;;;;52.15;24.40;;;6.60;99.90;;;;;;5059783;28;20049;-75
2022/11/30 14:02:40;;;;;;;61.13;24.88;;;6.40;99.90;;;;;;5086969;27;20051;-75
2022/11/30 14:05:15;;;;;;;45.47;23.25;;;6.40;99.90;;;;;;5144049;27;20047;-75
2022/11/30 14:07:49;;;;;;;58.17;26.27;;;6.50;99.90;;;;;;5142169;27;20039;-75
2022/11/30 14:10:31;;;;;;;53.85;24.50;;;6.40;99.90;;;;;;5125355;27;20088;-76
2022/11/30 14:13:09;;;;;;;47.78;22.20;;;6.40;99.90;;;;;;5122137;27;20059;-75
2022/11/30 14:15:38;;;;;;;51.40;24.67;;;6.70;99.90;;;;;;5124696;27;20098;-75
2022/11/30 14:18:06;;;;;;;54.90;25.70;;;6.30;99.90;;;;;;5125596;27;20074;-75
2022/11/30 14:20:49;;;;;;;52.92;26.50;;;6.60;99.90;;;;;;5127157;27;20035;-75
2022/11/30 14:23:24;;;;;;;46.95;23.88;;;6.30;99.90;;;;;;5145189;27;20420;-75
2022/11/30 14:25:53;;;;;;;49.80;25.05;;;6.40;99.90;;;;;;5144821;27;20055;-76
2022/11/30 14:28:45;;;;;;;50.65;23.17;;;6.50;99.90;;;;;;5122555;27;20035;-75
2022/11/30 14:31:17;;;;;;;48.08;22.70;;;6.30;99.90;;;;;;5081109;27;20571;-75
2022/11/30 14:33:53;;;;;;;46.97;23.25;;;6.60;99.90;;;;;;5111910;28;20055;-73
2022/11/30 14:36:21;;;;;;;49.28;22.73;;;6.60;99.90;;;;;;5111953;28;20083;-74
2022/11/30 14:38:47;;;;;;;51.95;23.65;;;6.90;99.90;;;;;;5111106;28;20063;-74
2022/11/30 14:41:27;;;;;;;52.00;25.13;;;6.50;99.90;;;;;;5130550;27;20406;-73
2022/11/30 14:44:09;;;;;;;49.30;24.30;;;6.60;99.90;;;;;;5130707;28;20451;-74
2022/11/30 14:46:35;;;;;;;47.70;24.00;;;6.60;99.90;;;;;;5129780;27;20042;-73
2022/11/30 14:49:05;;;;;;;47.17;22.50;;;6.40;99.90;;;;;;5130108;28;20051;-74
2022/11/30 14:51:32;;;;;;;49.35;25.52;;;6.60;99.90;;;;;;5130195;27;20047;-73
2022/11/30 14:54:24;;;;;;;45.40;23.60;;;6.40;99.90;;;;;;5130494;28;20542;-74
2022/11/30 14:56:56;;;;;;;43.80;21.00;;;6.80;99.90;;;;;;5094040;28;20054;-73
2022/11/30 14:59:27;;;;;;;46.33;22.88;;;6.60;99.90;;;;;;5111332;28;20039;-74
2022/11/30 15:02:00;;;;;;;44.88;22.40;;;6.30;99.90;;;;;;5112321;28;20466;-73
2022/11/30 15:04:26;;;;;;;43.63;21.77;;;6.60;99.90;;;;;;5130140;28;20503;-73
2022/11/30 15:06:54;;;;;;;40.58;22.40;;;6.60;99.90;;;;;;5130652;28;20117;-73
2022/11/30 15:09:24;;;;;;;44.13;22.95;;;6.30;99.90;;;;;;5130198;28;20051;-74
2022/11/30 15:11:50;;;;;;;44.50;24.27;;;6.90;99.90;;;;;;5111462;27;20057;-76
2022/11/30 15:14:17;;;;;;;41.55;20.48;;;6.40;99.90;;;;;;5112061;28;20043;-75
2022/11/30 15:16:52;;;;;;;43.75;22.30;;;6.20;99.90;;;;;;5111896;28;20047;-75
2022/11/30 15:19:22;;;;;;;36.70;21.17;;;6.20;99.90;;;;;;5130350;28;20418;-75
2022/11/30 15:21:49;;;;;;;42.50;21.90;;;6.40;99.90;;;;;;5111838;28;20047;-75
2022/11/30 15:24:15;;;;;;;36.92;22.00;;;6.50;99.90;;;;;;5131724;27;20086;-74
2022/11/30 15:27:01;;;;;;;42.22;22.80;;;6.60;99.90;;;;;;5133264;27;20090;-74
2022/11/30 15:29:31;;;;;;;37.55;20.65;;;6.40;99.90;;;;;;5098795;27;20141;-74
2022/11/30 15:31:59;;;;;;;42.65;22.08;;;6.50;99.90;;;;;;5098890;27;20090;-75
2022/11/30 15:34:46;;;;;;;42.13;22.73;;;6.50;99.90;;;;;;5133858;27;20051;-71
2022/11/30 15:37:12;;;;;;;42.47;22.38;;;6.40;99.90;;;;;;5133214;27;20080;-74
2022/11/30 15:39:40;;;;;;;40.33;21.55;;;6.40;99.90;;;;;;5132750;27;20145;-76
2022/11/30 15:42:07;;;;;;;43.13;23.15;;;6.30;99.90;;;;;;5098455;27;20043;-74
2022/11/30 15:44:46;;;;;;;41.38;21.70;;;6.50;99.90;;;;;;5115439;27;20051;-75
2022/11/30 15:47:31;;;;;;;48.22;23.40;;;6.60;99.90;;;;;;5134959;27;20549;-74
2022/11/30 15:49:56;;;;;;;39.90;20.88;;;5.50;99.90;;;;;;5133706;27;20093;-74
2022/11/30 15:52:28;;;;;;;42.42;22.30;;;7.10;99.90;;;;;;5114714;27;20079;-74
2022/11/30 15:54:56;;;;;;;42.83;23.10;;;6.50;99.90;;;;;;5133505;27;20055;-75
2022/11/30 15:57:24;;;;;;;46.30;22.52;;;6.70;99.90;;;;;;5114670;27;20039;-75
2022/11/30 16:00:11;;;;;;;45.92;22.23;;;6.30;99.90;;;;;;5114468;27;20268;-73
2022/11/30 16:02:37;;;;;;;42.17;21.63;;;6.40;99.90;;;;;;5102137;27;20047;-74
2022/11/30 16:05:22;;;;;;;47.83;23.20;;;6.40;99.90;;;;;;5118937;27;20070;-74
2022/11/30 16:07:58;;;;;;;43.67;22.90;;;6.30;99.90;;;;;;5121520;27;20051;-73
2022/11/30 16:10:34;;;;;;;51.03;24.30;;;6.30;99.90;;;;;;5144271;27;20126;-73
2022/11/30 16:13:00;;;;;;;49.08;24.25;;;6.40;99.90;;;;;;5124523;27;20096;-73
2022/11/30 16:15:28;;;;;;;46.45;24.63;;;6.70;99.90;;;;;;5163392;27;20474;-73
2022/11/30 16:17:59;;;;;;;42.33;21.15;;;6.20;99.90;;;;;;5147858;27;20073;-72
2022/11/30 16:20:25;;;;;;;49.15;24.10;;;6.50;99.90;;;;;;5125195;27;20036;-74
2022/11/30 16:22:50;;;;;;;41.15;20.40;;;6.30;99.90;;;;;;5161834;27;20054;-74
2022/11/30 16:25:22;;;;;;;50.42;24.05;;;6.60;99.90;;;;;;5148245;27;20042;-73
2022/11/30 16:27:49;;;;;;;50.03;24.38;;;6.50;99.90;;;;;;5096305;27;20043;-73
2022/11/30 16:30:17;;;;;;;50.90;23.17;;;6.50;99.90;;;;;;5146148;27;20061;-74
2022/11/30 16:32:43;;;;;;;45.72;24.67;;;6.30;99.90;;;;;;5148684;27;20039;-74
2022/11/30 16:35:16;;;;;;;45.58;23.48;;;6.30;99.90;;;;;;5127754;27;20038;-75
2022/11/30 16:37:41;;;;;;;44.22;23.80;;;6.60;99.90;;;;;;5138306;27;20054;-75
2022/11/30 16:40:07;;;;;;;51.22;24.58;;;6.80;99.90;;;;;;5116750;27;20460;-74
2022/11/30 16:42:33;;;;;;;46.30;24.38;;;6.30;99.90;;;;;;5101100;27;20108;-74
2022/11/30 16:44:59;;;;;;;52.30;24.65;;;6.00;99.90;;;;;;5117998;27;20047;-74
2022/11/30 16:47:24;;;;;;;53.38;25.80;;;6.40;99.90;;;;;;5101311;27;20479;-74
2022/11/30 16:49:50;;;;;;;52.72;25.52;;;6.50;99.90;;;;;;5084282;27;20483;-76
2022/11/30 16:52:16;;;;;;;50.40;23.88;;;7.50;99.90;;;;;;5103680;27;20038;-74
2022/11/30 16:54:42;;;;;;;47.70;23.50;;;6.40;99.90;;;;;;5156780;27;20099;-74
2022/11/30 16:57:07;;;;;;;48.17;24.67;;;6.40;99.90;;;;;;5123088;27;20096;-75
2022/11/30 16:59:33;;;;;;;53.25;25.02;;;6.30;99.90;;;;;;5096407;27;20103;-73
2022/11/30 17:01:59;;;;;;;52.47;25.58;;;6.00;99.90;;;;;;5114059;27;20371;-74
2022/11/30 17:04:28;;;;;;;53.80;25.23;;;6.50;99.90;;;;;;5096797;27;20047;-74
2022/11/30 17:06:54;;;;;;;55.53;25.88;;;6.60;99.90;;;;;;5113772;27;20191;-74
2022/11/30 17:09:21;;;;;;;51.05;26.25;;;6.20;99.90;;;;;;5113690;27;20418;-75
2022/11/30 17:11:51;;;;;;;53.28;25.52;;;6.30;99.90;;;;;;5113033;27;20083;-75
2022/11/30 17:14:18;;;;;;;51.65;26.17;;;6.10;99.90;;;;;;5096871;27;20059;-74
2022/11/30 17:16:44;;;;;;;51.70;24.15;;;6.70;99.90;;;;;;5131552;27;20055;-73
2022/11/30 17:19:10;;;;;;;46.00;23.63;;;7.20;99.90;;;;;;5113412;27;20043;-75
2022/11/30 17:21:38;;;;;;;52.55;26.08;;;6.40;99.90;;;;;;5113482;27;20538;-74
2022/11/30 17:24:05;;;;;;;49.05;24.65;;;6.50;99.90;;;;;;5113309;27;20050;-75
2022/11/30 17:26:31;;;;;;;49.13;24.73;;;6.20;99.90;;;;;;5130978;27;20078;-75
2022/11/30 17:28:57;;;;;;;54.45;25.38;;;6.40;99.90;;;;;;5113231;27;20089;-73
2022/11/30 17:31:23;;;;;;;50.10;24.20;;;6.60;99.90;;;;;;5113441;27;20086;-73
2022/11/30 17:33:48;;;;;;;48.45;23.77;;;6.50;99.90;;;;;;5131250;27;20043;-73
2022/11/30 17:36:17;;;;;;;52.47;24.40;;;6.50;99.90;;;;;;5113000;27;20179;-74
2022/11/30 17:38:44;;;;;;;48.95;25.05;;;6.20;99.90;;;;;;5095317;27;20051;-73
2022/11/30 17:41:15;;;;;;;50.72;24.65;;;6.50;99.90;;;;;;5131478;27;20112;-73
2022/11/30 17:43:41;;;;;;;51.42;23.52;;;6.60;99.90;;;;;;5113183;27;20502;-73
2022/11/30 17:46:09;;;;;;;47.42;25.42;;;6.40;99.90;;;;;;5130895;27;20126;-73
2022/11/30 17:48:36;;;;;;;49.83;23.10;;;6.10;99.90;;;;;;5130938;27;20039;-75
2022/11/30 17:51:02;;;;;;;51.58;24.45;;;6.30;99.90;;;;;;5112335;27;20062;-74
2022/11/30 17:53:28;;;;;;;51.50;23.60;;;6.20;99.90;;;;;;5113111;27;20147;-73
2022/11/30 17:56:05;;;;;;;51.25;23.40;;;6.50;99.90;;;;;;5095384;27;20100;-74
2022/11/30 17:58:32;;;;;;;50.10;23.45;;;6.10;99.90;;;;;;5130980;27;20514;-72
2022/11/30 18:00:58;;;;;;;53.40;24.83;;;6.30;99.90;;;;;;5130842;27;20054;-72
2022/11/30 18:03:23;;;;;;;48.90;23.63;;;6.50;99.90;;;;;;5112070;27;20043;-72
2022/11/30 18:05:49;;;;;;;49.92;24.35;;;6.20;99.90;;;;;;5112795;27;20124;-72
2022/11/30 18:08:16;;;;;;;49.17;24.05;;;6.30;99.90;;;;;;5130821;27;20500;-72
2022/11/30 18:10:46;;;;;;;49.97;23.88;;;6.20;99.90;;;;;;5112842;27;20039;-73
2022/11/30 18:13:12;;;;;;;48.25;22.60;;;7.20;99.90;;;;;;5130852;27;20051;-73
2022/11/30 18:15:38;;;;;;;53.30;25.15;;;6.40;99.90;;;;;;5130433;27;20046;-74
2022/11/30 18:18:04;;;;;;;49.58;25.02;;;6.60;99.90;;;;;;5112177;27;20049;-73
2022/11/30 18:20:30;;;;;;;51.78;24.40;;;6.20;99.90;;;;;;5130590;27;20108;-73
2022/11/30 18:22:55;;;;;;;51.83;24.08;;;6.80;99.90;;;;;;5130642;27;20047;-73
2022/11/30 18:25:21;;;;;;;47.88;24.92;;;6.10;99.90;;;;;;5112226;27;20444;-74
2022/11/30 18:27:50;;;;;;;50.20;24.05;;;7.10;99.90;;;;;;5130511;27;20046;-72
2022/11/30 18:30:16;;;;;;;53.40;25.00;;;6.20;99.90;;;;;;5129815;27;20058;-72
2022/11/30 18:32:42;;;;;;;53.55;25.38;;;6.30;99.90;;;;;;5130700;27;20051;-72
2022/11/30 18:35:08;;;;;;;48.58;23.75;;;6.10;99.90;;;;;;5146637;27;20530;-71
2022/11/30 18:37:34;;;;;;;51.08;25.17;;;6.20;99.90;;;;;;5130476;28;20051;-71
2022/11/30 18:39:59;;;;;;;53.90;25.48;;;6.30;99.90;;;;;;5112016;28;20130;-71
2022/11/30 18:42:25;;;;;;;49.75;23.70;;;6.20;99.90;;;;;;5111952;28;20073;-71
2022/11/30 18:44:51;;;;;;;52.97;25.25;;;6.60;99.90;;;;;;5095229;27;20075;-71
2022/11/30 18:47:16;;;;;;;54.80;25.17;;;6.10;99.90;;;;;;5130717;28;20070;-71
2022/11/30 18:49:42;;;;;;;52.15;23.60;;;6.40;99.90;;;;;;5112263;28;20060;-72
2022/11/30 18:52:08;;;;;;;51.58;24.30;;;6.50;99.90;;;;;;5130442;28;20047;-72
2022/11/30 18:54:35;;;;;;;61.47;29.00;;;5.90;99.90;;;;;;5130306;28;20437;-72
2022/11/30 18:57:01;;;;;;;58.70;28.58;;;6.50;99.90;;;;;;5111275;28;20102;-72
2022/11/30 18:59:26;;;;;;;54.03;27.38;;;6.30;99.90;;;;;;5114202;27;20047;-72
2022/11/30 19:01:54;;;;;;;53.78;26.92;;;6.10;99.90;;;;;;5134479;27;20405;-72
2022/11/30 19:04:23;;;;;;;56.53;26.00;;;6.40;99.90;;;;;;5134633;27;20065;-72
2022/11/30 19:06:49;;;;;;;53.55;26.25;;;6.10;99.90;;;;;;5134502;27;20130;-72
2022/11/30 19:09:15;;;;;;;57.17;25.90;;;6.20;99.90;;;;;;5133676;27;20558;-72
2022/11/30 19:11:41;;;;;;;57.88;25.00;;;6.10;99.90;;;;;;5134533;27;20057;-72
2022/11/30 19:14:10;;;;;;;61.88;25.52;;;6.10;99.90;;;;;;5098958;27;20057;-72
2022/11/30 19:16:36;;;;;;;61.67;27.48;;;7.10;99.90;;;;;;5115963;27;20057;-72
2022/11/30 19:19:04;;;;;;;61.03;25.15;;;6.50;99.90;;;;;;5133905;27;20054;-72
2022/11/30 19:21:30;;;;;;;62.97;26.13;;;6.40;99.90;;;;;;5133623;27;20055;-72
2022/11/30 19:23:57;;;;;;;61.83;27.95;;;6.20;99.90;;;;;;5081802;27;20043;-72
2022/11/30 19:26:23;;;;;;;67.78;28.70;;;6.20;99.90;;;;;;5114955;27;20505;-72
2022/11/30 19:28:48;;;;;;;62.75;28.55;;;6.80;99.90;;;;;;5115315;27;20043;-72
2022/11/30 19:31:18;;;;;;;63.85;27.55;;;6.50;99.90;;;;;;5133866;27;20054;-71
2022/11/30 19:33:47;;;;;;;65.38;28.05;;;6.00;99.90;;;;;;5133953;27;20043;-71
2022/11/30 19:36:16;;;;;;;71.28;29.55;;;6.30;99.90;;;;;;5114940;27;20043;-71
2022/11/30 19:38:42;;;;;;;68.63;28.77;;;6.30;99.90;;;;;;5133490;27;20623;-71
2022/11/30 19:41:11;;;;;;;73.40;28.60;;;6.30;99.90;;;;;;5133364;27;20134;-71
2022/11/30 19:43:37;;;;;;;63.00;28.13;;;6.50;99.90;;;;;;5098568;27;20062;-72
2022/11/30 19:46:05;;;;;;;69.82;29.42;;;6.50;99.90;;;;;;5115422;27;20047;-72
2022/11/30 19:48:31;;;;;;;65.63;28.10;;;6.20;99.90;;;;;;5115066;27;20059;-72
2022/11/30 19:50:57;;;;;;;73.40;28.30;;;7.30;99.90;;;;;;5133492;27;20047;-72
2022/11/30 19:53:22;;;;;;;69.50;28.48;;;6.20;99.90;;;;;;5133621;27;20126;-72
2022/11/30 19:55:48;;;;;;;77.05;32.70;;;6.00;99.90;;;;;;5133099;27;20118;-73
2022/11/30 19:58:14;;;;;;;76.63;33.10;;;6.40;99.90;;;;;;5114974;27;20043;-72
2022/11/30 20:00:39;;;;;;;67.57;30.13;;;6.50;99.90;;;;;;5114822;27;20051;-72
2022/11/30 20:03:08;;;;;;;71.95;28.88;;;6.40;99.90;;;;;;5114969;27;20051;-72
2022/11/30 20:05:37;;;;;;;70.75;30.63;;;6.40;99.90;;;;;;5133167;27;20051;-72
2022/11/30 20:08:04;;;;;;;71.93;28.85;;;7.30;99.90;;;;;;5133161;27;20059;-72
2022/11/30 20:10:30;;;;;;;69.88;30.00;;;6.20;99.90;;;;;;5132486;27;20046;-71
2022/11/30 20:12:58;;;;;;;68.20;28.58;;;6.20;99.90;;;;;;5115179;27;20043;-71
2022/11/30 20:15:23;;;;;;;69.22;29.05;;;6.50;99.90;;;;;;5132541;27;20058;-71
2022/11/30 20:17:49;;;;;;;71.05;30.08;;;6.60;99.90;;;;;;5114578;27;20657;-71
2022/11/30 20:20:15;;;;;;;73.20;29.02;;;6.30;99.90;;;;;;5097588;27;20054;-71
2022/11/30 20:22:41;;;;;;;64.20;28.92;;;6.20;99.90;;;;;;5080621;27;20070;-71
2022/11/30 20:25:07;;;;;;;78.47;29.88;;;6.60;99.90;;;;;;5132751;27;20422;-71
2022/11/30 20:27:34;;;;;;;70.70;30.02;;;6.20;99.90;;;;;;5131039;27;20055;-71
2022/11/30 20:29:59;;;;;;;69.82;29.30;;;6.40;99.90;;;;;;5132648;27;20521;-71
2022/11/30 20:32:26;;;;;;;69.63;29.38;;;6.50;99.90;;;;;;5114536;27;20047;-71
2022/11/30 20:34:52;;;;;;;67.72;28.20;;;6.40;99.90;;;;;;5148864;27;20043;-71
2022/11/30 20:37:17;;;;;;;68.07;27.55;;;6.40;99.90;;;;;;5132620;27;20120;-71
2022/11/30 20:39:43;;;;;;;73.20;29.90;;;6.20;99.90;;;;;;5131861;27;20125;-71
2022/11/30 20:42:09;;;;;;;68.65;29.33;;;6.60;99.90;;;;;;5132393;27;20047;-71
2022/11/30 20:44:35;;;;;;;72.18;30.92;;;6.20;99.90;;;;;;5148717;27;20474;-71
2022/11/30 20:47:00;;;;;;;64.45;27.23;;;6.50;99.90;;;;;;5114307;27;20130;-71
2022/11/30 20:49:26;;;;;;;68.80;28.38;;;6.50;99.90;;;;;;5132241;27;20042;-71
2022/11/30 20:51:52;;;;;;;72.38;28.70;;;6.30;99.90;;;;;;5148539;27;20047;-72
2022/11/30 20:54:18;;;;;;;75.10;30.02;;;6.50;99.90;;;;;;5131802;27;20043;-71
2022/11/30 20:56:44;;;;;;;64.82;28.55;;;6.40;99.90;;;;;;5131833;27;20043;-71
2022/11/30 20:59:15;;;;;;;65.85;27.88;;;6.80;99.90;;;;;;5114181;27;20123;-72
2022/11/30 21:01:43;;;;;;;67.90;28.17;;;6.20;99.90;;;;;;5132293;27;20047;-72
2022/11/30 21:04:09;;;;;;;59.13;26.73;;;6.30;99.90;;;;;;5131911;27;20130;-72
2022/11/30 21:06:35;;;;;;;66.22;27.23;;;6.30;99.90;;;;;;5131666;27;20126;-72
2022/11/30 21:09:00;;;;;;;70.55;28.10;;;6.40;99.90;;;;;;5131921;27;20517;-71
2022/11/30 21:11:28;;;;;;;55.83;26.40;;;6.20;99.90;;;;;;5113847;27;20390;-71
2022/11/30 21:13:55;;;;;;;62.20;26.80;;;6.20;99.90;;;;;;5132264;27;20111;-71
2022/11/30 21:16:23;;;;;;;61.35;26.92;;;6.30;99.90;;;;;;5131972;27;20406;-71
2022/11/30 21:18:49;;;;;;;56.92;26.30;;;6.50;99.90;;;;;;5112564;27;20541;-71
2022/11/30 21:21:16;;;;;;;58.05;26.00;;;6.40;99.90;;;;;;5130658;27;20130;-71
2022/11/30 21:23:42;;;;;;;63.53;26.88;;;6.30;99.90;;;;;;5110099;27;20047;-71
2022/11/30 21:26:18;;;;;;;61.40;26.35;;;6.40;99.90;;;;;;5129866;27;20043;-71
2022/11/30 21:28:45;;;;;;;57.00;25.40;;;6.10;99.90;;;;;;5112043;27;20402;-72
2022/11/30 21:31:11;;;;;;;64.57;27.85;;;6.20;99.90;;;;;;5095034;27;20407;-72
2022/11/30 21:33:37;;;;;;;60.92;25.95;;;6.10;99.90;;;;;;5129989;27;20047;-71
2022/11/30 21:36:07;;;;;;;62.13;25.52;;;6.60;99.90;;;;;;5112129;27;20047;-71
2022/11/30 21:38:33;;;;;;;60.92;25.92;;;6.30;99.90;;;;;;5127234;27;20079;-71
2022/11/30 21:41:00;;;;;;;58.90;25.58;;;6.20;99.90;;;;;;5130200;27;20162;-72
2022/11/30 21:43:27;;;;;;;54.33;24.95;;;6.30;99.90;;;;;;5112860;27;20053;-71
2022/11/30 21:46:20;;;;;;;56.40;26.17;;;6.30;99.90;;;;;;5095286;27;20055;-72
2022/11/30 21:48:47;;;;;;;58.45;25.65;;;6.20;99.90;;;;;;5124005;27;20133;-71
2022/11/30 21:51:23;;;;;;;55.95;25.52;;;6.40;99.90;;;;;;5112859;27;20050;-71
2022/11/30 21:53:54;;;;;;;57.47;26.33;;;6.20;99.90;;;;;;5095946;27;20059;-71
2022/11/30 21:56:25;;;;;;;55.65;26.02;;;6.70;99.90;;;;;;5112720;27;20054;-72
2022/11/30 21:58:51;;;;;;;55.97;25.63;;;6.30;99.90;;;;;;5112292;27;20055;-72
2022/11/30 22:01:28;;;;;;;56.17;26.00;;;6.10;99.90;;;;;;5131197;27;20054;-72
2022/11/30 22:03:55;;;;;;;54.17;24.52;;;6.20;99.90;;;;;;5112832;27;20066;-72
2022/11/30 22:06:23;;;;;;;61.38;26.52;;;6.20;99.90;;;;;;5112489;27;20109;-71
2022/11/30 22:08:49;;;;;;;60.65;27.90;;;6.50;99.90;;;;;;5112704;27;20054;-71
2022/11/30 22:11:21;;;;;;;61.40;28.17;;;6.50;99.90;;;;;;5111894;27;20055;-72
2022/11/30 22:13:52;;;;;;;62.88;28.02;;;6.30;99.90;;;;;;5130853;27;20459;-72
2022/11/30 22:16:19;;;;;;;58.28;27.77;;;6.50;99.90;;;;;;5130496;27;20545;-71
2022/11/30 22:18:45;;;;;;;58.13;26.20;;;6.10;99.90;;;;;;5146765;27;20051;-71
2022/11/30 22:21:16;;;;;;;57.08;28.02;;;6.10;99.90;;;;;;5130690;27;20043;-72
2022/11/30 22:23:45;;;;;;;59.80;26.65;;;6.40;99.90;;;;;;5095426;27;20057;-72
2022/11/30 22:26:16;;;;;;;58.92;26.95;;;6.50;99.90;;;;;;5129965;27;20051;-72
2022/11/30 22:28:45;;;;;;;57.08;27.02;;;6.00;99.90;;;;;;5130793;27;20047;-72
2022/11/30 22:31:13;;;;;;;55.47;25.65;;;6.40;99.90;;;;;;5112091;27;20486;-72
2022/11/30 22:33:40;;;;;;;57.50;26.90;;;6.10;99.90;;;;;;5112059;28;20108;-72
2022/11/30 22:36:10;;;;;;;53.13;25.15;;;6.30;99.90;;;;;;5130431;27;20069;-72
2022/11/30 22:38:35;;;;;;;58.28;25.48;;;6.20;99.90;;;;;;5129613;27;20151;-71
2022/11/30 22:41:12;;;;;;;60.60;25.40;;;6.40;99.90;;;;;;5054831;28;20048;-72
2022/11/30 22:43:38;;;;;;;60.28;27.40;;;6.30;99.90;;;;;;5089701;28;20410;-75
2022/11/30 22:46:13;;;;;;;56.58;25.88;;;6.10;99.90;;;;;;5075663;28;20127;-73
2022/11/30 22:48:40;;;;;;;58.80;26.05;;;6.20;99.90;;;;;;5075380;28;20055;-75
2022/11/30 22:51:09;;;;;;;52.58;25.20;;;6.30;99.90;;;;;;5091821;28;20496;-74
2022/11/30 22:53:36;;;;;;;56.08;25.38;;;6.50;99.90;;;;;;5093324;28;20097;-75
2022/11/30 22:56:14;;;;;;;60.17;25.83;;;6.70;99.90;;;;;;5075113;28;20044;-75
2022/11/30 22:58:40;;;;;;;56.65;26.70;;;6.40;99.90;;;;;;5091910;28;20047;-74
2022/11/30 23:01:18;;;;;;;52.05;26.00;;;6.10;99.90;;;;;;5092200;28;20462;-74
2022/11/30 23:03:45;;;;;;;57.90;26.90;;;6.10;99.90;;;;;;5092341;28;20056;-75
2022/11/30 23:06:13;;;;;;;57.45;24.92;;;6.90;99.90;;;;;;5092599;28;20096;-74
2022/11/30 23:08:39;;;;;;;54.83;24.35;;;6.20;99.90;;;;;;5093037;28;20384;-74
2022/11/30 23:11:08;;;;;;;54.63;26.85;;;6.50;99.90;;;;;;5092034;28;20048;-74
2022/11/30 23:13:34;;;;;;;60.85;25.63;;;6.30;99.90;;;;;;5091790;28;20048;-75
2022/11/30 23:16:00;;;;;;;53.85;24.48;;;7.00;99.90;;;;;;5091825;28;20530;-74
2022/11/30 23:18:31;;;;;;;49.03;25.45;;;6.40;99.90;;;;;;5074602;28;20143;-75
2022/11/30 23:21:05;;;;;;;53.65;23.73;;;6.40;99.90;;;;;;5092040;28;20186;-74
2022/11/30 23:23:31;;;;;;;52.13;24.80;;;6.30;99.90;;;;;;5092253;28;20044;-75
2022/11/30 23:26:06;;;;;;;56.25;24.35;;;6.50;99.90;;;;;;5091771;28;20052;-74
2022/11/30 23:28:32;;;;;;;55.13;25.55;;;6.30;99.90;;;;;;5091504;28;20487;-74
2022/11/30 23:31:02;;;;;;;50.92;24.60;;;6.10;99.90;;;;;;5093227;28;20054;-74
2022/11/30 23:33:28;;;;;;;59.40;26.33;;;6.10;99.90;;;;;;5075496;28;20117;-74
2022/11/30 23:35:53;;;;;;;56.60;25.45;;;6.30;99.90;;;;;;5092869;28;20468;-74